Time;durP1;ratioP1;P1;durP2;ratioP2;P2;SDS_P1;SDS_P2;PMS_P1;PMS_P2;Temp;Humidity;BMP_temperature;BMP_pressure;BME280_temperature;BME280_humidity;BME280_pressure;Samples;Min_cycle;Max_cycle;Signal;HPM_P1;HPM_P2
2022/11/22 00:01:47;;;;;;;8.77;7.88;;;;;;;;;;4835641;29;20077;-74
2022/11/22 00:04:15;;;;;;;11.38;9.05;;;;;;;;;;4813093;29;20057;-75
2022/11/22 00:06:42;;;;;;;7.68;6.97;;;;;;;;;;4811058;29;20137;-75
2022/11/22 00:09:10;;;;;;;7.15;6.45;;;;;;;;;;4813881;29;20058;-75
2022/11/22 00:11:37;;;;;;;6.90;6.13;;;;;;;;;;4811521;29;20074;-77
2022/11/22 00:14:04;;;;;;;6.38;5.80;;;;;;;;;;4810084;29;20129;-76
2022/11/22 00:16:33;;;;;;;7.45;6.85;;;;;;;;;;4812587;29;20106;-75
2022/11/22 00:19:00;;;;;;;8.57;7.82;;;;;;;;;;4799691;29;20515;-76
2022/11/22 00:21:28;;;;;;;10.07;7.93;;;;;;;;;;4806445;24;20124;-74
2022/11/22 00:23:56;;;;;;;6.85;6.13;;;;;;;;;;4761506;29;20078;-74
2022/11/22 00:26:24;;;;;;;7.78;6.97;;;;;;;;;;4776400;29;20044;-74
2022/11/22 00:28:52;;;;;;;6.88;6.30;;;;;;;;;;4775386;29;20524;-73
2022/11/22 00:31:19;;;;;;;7.82;7.07;;;;;;;;;;4775023;29;20138;-73
2022/11/22 00:33:46;;;;;;;9.00;8.15;;;;;;;;;;4788006;29;20520;-74
2022/11/22 00:36:16;;;;;;;7.35;6.43;;;;;;;;;;4799701;29;20148;-74
2022/11/22 00:38:43;;;;;;;7.32;6.65;;;;;;;;;;4778052;29;20055;-73
2022/11/22 00:41:10;;;;;;;7.13;6.43;;;;;;;;;;4786701;29;20062;-74
2022/11/22 00:43:38;;;;;;;6.78;6.18;;;;;;;;;;4781654;29;20493;-75
2022/11/22 00:46:05;;;;;;;6.05;5.55;;;;;;;;;;4787396;29;20051;-74
2022/11/22 00:48:32;;;;;;;7.72;6.93;;;;;;;;;;4783899;29;20051;-74
2022/11/22 00:51:00;;;;;;;8.00;7.20;;;;;;;;;;4783200;30;20057;-74
2022/11/22 00:53:27;;;;;;;7.30;6.60;;;;;;;;;;4795362;29;20503;-74
2022/11/22 00:55:54;;;;;;;6.80;6.20;;;;;;;;;;4795617;29;20050;-74
2022/11/22 00:58:22;;;;;;;7.07;6.47;;;;;;;;;;4787738;29;20657;-74
2022/11/22 01:00:49;;;;;;;7.63;6.95;;;;;;;;;;4783998;29;20039;-74
2022/11/22 01:03:23;;;;;;;7.50;6.90;;;;;;;;;;4780176;29;20096;-74
2022/11/22 01:05:50;;;;;;;6.78;6.15;;;;;;;;;;4795600;29;20051;-74
2022/11/22 01:08:17;;;;;;;7.90;7.20;;;;;;;;;;4783315;30;20158;-74
2022/11/22 01:10:45;;;;;;;8.63;7.78;;;;;;;;;;4784200;30;20420;-74
2022/11/22 01:13:12;;;;;;;7.22;6.53;;;;;;;;;;4779935;29;20075;-74
2022/11/22 01:15:39;;;;;;;6.68;6.07;;;;;;;;;;4782296;29;20043;-74
2022/11/22 01:18:07;;;;;;;6.88;6.20;;;;;;;;;;4783810;30;20059;-74
2022/11/22 01:20:34;;;;;;;6.65;6.15;;;;;;;;;;4783265;30;20051;-75
2022/11/22 01:23:01;;;;;;;7.93;7.05;;;;;;;;;;4782384;30;20055;-74
2022/11/22 01:25:29;;;;;;;5.95;5.35;;;;;;;;;;4780187;29;20066;-74
2022/11/22 01:27:56;;;;;;;7.97;7.18;;;;;;;;;;4771778;29;20055;-74
2022/11/22 01:30:24;;;;;;;7.43;6.72;;;;;;;;;;4783147;29;20051;-74
2022/11/22 01:32:51;;;;;;;6.63;6.00;;;;;;;;;;4790764;29;20043;-74
2022/11/22 01:35:18;;;;;;;8.52;7.75;;;;;;;;;;4790789;29;20054;-74
2022/11/22 01:37:46;;;;;;;5.63;5.13;;;;;;;;;;4785070;29;20130;-74
2022/11/22 01:40:13;;;;;;;6.78;6.18;;;;;;;;;;4785505;29;20100;-74
2022/11/22 01:42:43;;;;;;;5.88;5.38;;;;;;;;;;4780624;29;20051;-74
2022/11/22 01:45:29;;;;;;;6.32;5.72;;;;;;;;;;4785152;29;20059;-74
2022/11/22 01:47:59;;;;;;;8.20;7.00;;;;;;;;;;4775737;29;20317;-74
2022/11/22 01:50:27;;;;;;;8.27;6.25;;;;;;;;;;4795906;29;20157;-74
2022/11/22 01:52:56;;;;;;;6.97;6.13;;;;;;;;;;4788239;29;20462;-74
2022/11/22 01:55:23;;;;;;;16.50;7.38;;;;;;;;;;4794383;29;20075;-74
2022/11/22 01:57:51;;;;;;;7.68;6.28;;;;;;;;;;4782301;29;20532;-74
2022/11/22 02:00:18;;;;;;;9.40;6.13;;;;;;;;;;4791639;29;20062;-74
2022/11/22 02:02:47;;;;;;;6.55;5.95;;;;;;;;;;4782371;29;20063;-74
2022/11/22 02:05:16;;;;;;;6.25;5.68;;;;;;;;;;4800267;29;20046;-74
2022/11/22 02:08:01;;;;;;;7.00;6.32;;;;;;;;;;4768154;29;20039;-74
2022/11/22 02:10:29;;;;;;;6.78;6.13;;;;;;;;;;4772232;30;20533;-74
2022/11/22 02:12:58;;;;;;;6.50;5.90;;;;;;;;;;4778656;29;20067;-74
2022/11/22 02:15:25;;;;;;;8.93;6.82;;;;;;;;;;4783125;29;20052;-74
2022/11/22 02:20:40;;;;;;;7.32;6.47;;;;;;;;;;4786378;29;20055;-71
2022/11/22 02:23:19;;;;;;;7.38;6.68;;;;;;;;;;4773570;29;20051;-71
2022/11/22 02:25:49;;;;;;;8.80;6.32;;;;;;;;;;4770681;30;20483;-71
2022/11/22 02:28:16;;;;;;;11.50;7.00;;;;;;;;;;4762666;30;20041;-71
2022/11/22 02:30:43;;;;;;;8.93;6.90;;;;;;;;;;4761757;30;20078;-70
2022/11/22 02:33:11;;;;;;;7.53;6.60;;;;;;;;;;4737013;30;20416;-71
2022/11/22 02:35:39;;;;;;;10.35;7.45;;;;;;;;;;4758898;30;20043;-71
2022/11/22 02:38:06;;;;;;;9.25;6.43;;;;;;;;;;4771540;30;20134;-71
2022/11/22 02:40:36;;;;;;;11.77;6.90;;;;;;;;;;4765755;30;20051;-71
2022/11/22 02:43:10;;;;;;;8.75;6.93;;;;;;;;;;4753480;30;20055;-71
2022/11/22 02:45:38;;;;;;;7.63;5.63;;;;;;;;;;4769757;30;20134;-71
2022/11/22 02:48:09;;;;;;;28.27;7.07;;;;;;;;;;4753683;30;20051;-71
2022/11/22 02:50:37;;;;;;;15.52;7.32;;;;;;;;;;4752575;30;20059;-71
2022/11/22 02:53:04;;;;;;;7.05;6.35;;;;;;;;;;4754700;30;20048;-71
2022/11/22 02:55:32;;;;;;;15.02;7.28;;;;;;;;;;4769748;30;20066;-71
2022/11/22 02:57:59;;;;;;;14.48;7.18;;;;;;;;;;4764546;30;20376;-71
2022/11/22 03:00:27;;;;;;;23.00;8.20;;;;;;;;;;4744400;30;20055;-71
2022/11/22 03:02:54;;;;;;;7.20;6.13;;;;;;;;;;4760519;30;20052;-71
2022/11/22 03:05:21;;;;;;;14.45;6.32;;;;;;;;;;4761192;30;20044;-71
2022/11/22 03:07:49;;;;;;;6.03;5.43;;;;;;;;;;4750050;30;20075;-71
2022/11/22 03:10:17;;;;;;;6.28;5.68;;;;;;;;;;4768971;30;20043;-71
2022/11/22 03:12:44;;;;;;;5.63;5.22;;;;;;;;;;4771576;30;20047;-71
2022/11/22 03:15:11;;;;;;;10.73;5.82;;;;;;;;;;4715231;30;20060;-71
2022/11/22 03:17:39;;;;;;;23.70;7.53;;;;;;;;;;4751750;30;20552;-71
2022/11/22 03:20:07;;;;;;;5.78;5.28;;;;;;;;;;4736981;30;20043;-70
2022/11/22 03:22:34;;;;;;;5.97;5.47;;;;;;;;;;4754421;30;20048;-71
2022/11/22 03:25:01;;;;;;;8.00;6.43;;;;;;;;;;4771210;30;20047;-71
2022/11/22 03:27:29;;;;;;;11.50;6.20;;;;;;;;;;4763052;30;20043;-71
2022/11/22 03:29:56;;;;;;;6.63;6.03;;;;;;;;;;4763984;30;20119;-71
2022/11/22 03:32:23;;;;;;;10.45;7.05;;;;;;;;;;4733322;30;20046;-71
2022/11/22 03:34:51;;;;;;;10.57;7.03;;;;;;;;;;4764475;30;20048;-70
2022/11/22 03:37:18;;;;;;;11.77;6.65;;;;;;;;;;4748070;30;20044;-70
2022/11/22 03:39:46;;;;;;;6.93;6.32;;;;;;;;;;4774006;30;20136;-70
2022/11/22 03:42:13;;;;;;;8.13;7.20;;;;;;;;;;4770420;30;20050;-70
2022/11/22 03:44:47;;;;;;;7.05;6.45;;;;;;;;;;4750937;30;20051;-70
2022/11/22 03:47:14;;;;;;;6.45;5.85;;;;;;;;;;4753967;30;20048;-70
2022/11/22 03:49:42;;;;;;;6.57;5.97;;;;;;;;;;4766008;30;20051;-70
2022/11/22 03:52:09;;;;;;;8.05;7.18;;;;;;;;;;4754159;30;20051;-70
2022/11/22 03:54:37;;;;;;;9.02;7.38;;;;;;;;;;4766479;30;20050;-70
2022/11/22 03:57:04;;;;;;;13.88;8.60;;;;;;;;;;4757088;30;20074;-70
2022/11/22 03:59:32;;;;;;;7.40;6.60;;;;;;;;;;4763393;30;20047;-70
2022/11/22 04:01:59;;;;;;;7.43;6.72;;;;;;;;;;4769148;29;20045;-70
2022/11/22 04:04:27;;;;;;;8.10;6.15;;;;;;;;;;4771142;30;20043;-70
2022/11/22 04:06:54;;;;;;;9.40;7.05;;;;;;;;;;4769197;30;20052;-71
2022/11/22 04:09:21;;;;;;;7.20;6.30;;;;;;;;;;4751810;30;20048;-70
2022/11/22 04:11:49;;;;;;;5.97;5.38;;;;;;;;;;4741574;30;20048;-70
2022/11/22 04:17:02;;;;;;;7.40;6.75;;;;;;;;;;4753605;30;20353;-70
2022/11/22 04:19:29;;;;;;;6.30;5.70;;;;;;;;;;4748829;30;20501;-70
2022/11/22 04:21:57;;;;;;;7.05;6.35;;;;;;;;;;4757821;30;20040;-70
2022/11/22 04:27:10;;;;;;;6.65;6.05;;;;;;;;;;4768963;30;20509;-70
2022/11/22 04:29:38;;;;;;;7.07;6.38;;;;;;;;;;4739688;30;20047;-70
2022/11/22 04:34:51;;;;;;;5.72;5.22;;;;;;;;;;4763326;30;20749;-70
2022/11/22 04:37:18;;;;;;;9.70;7.38;;;;;;;;;;4766671;30;20370;-70
2022/11/22 04:39:46;;;;;;;8.27;7.20;;;;;;;;;;4763256;30;20051;-70
2022/11/22 04:44:59;;;;;;;7.55;6.85;;;;;;;;;;4763955;30;20147;-70
2022/11/22 04:53:03;;;;;;;12.95;9.07;;;;;;;;;;4758633;30;20048;-70
2022/11/22 04:55:30;;;;;;;9.73;8.55;;;;;;;;;;4731606;30;20051;-70
2022/11/22 04:57:57;;;;;;;9.10;8.20;;;;;;;;;;4740641;30;20060;-70
2022/11/22 05:00:27;;;;;;;13.77;8.95;;;;;;;;;;4749706;30;20078;-70
2022/11/22 05:02:54;;;;;;;12.70;9.38;;;;;;;;;;4768841;30;20082;-70
2022/11/22 05:05:22;;;;;;;12.15;9.77;;;;;;;;;;4760551;30;20051;-70
2022/11/22 05:07:49;;;;;;;10.00;8.32;;;;;;;;;;4762617;30;20073;-71
2022/11/22 05:10:17;;;;;;;9.15;8.25;;;;;;;;;;4774320;30;20110;-70
2022/11/22 05:12:52;;;;;;;8.35;7.32;;;;;;;;;;4763399;30;20052;-70
2022/11/22 05:15:20;;;;;;;15.30;9.05;;;;;;;;;;4763571;30;20056;-70
2022/11/22 05:17:47;;;;;;;11.15;8.73;;;;;;;;;;4768447;30;20059;-70
2022/11/22 05:20:14;;;;;;;10.10;8.18;;;;;;;;;;4764450;30;20098;-70
2022/11/22 05:25:28;;;;;;;9.77;8.75;;;;;;;;;;4773251;30;20070;-70
2022/11/22 05:27:55;;;;;;;10.38;8.77;;;;;;;;;;4751425;30;20457;-70
2022/11/22 05:30:23;;;;;;;7.72;6.93;;;;;;;;;;4747540;30;20052;-70
2022/11/22 05:32:50;;;;;;;9.55;8.55;;;;;;;;;;4767943;30;20055;-69
2022/11/22 05:35:17;;;;;;;8.02;7.15;;;;;;;;;;4746451;30;20074;-70
2022/11/22 05:37:45;;;;;;;9.68;8.32;;;;;;;;;;4757545;30;20079;-70
2022/11/22 05:40:12;;;;;;;7.85;7.05;;;;;;;;;;4748797;30;20055;-71
2022/11/22 05:42:40;;;;;;;9.27;8.20;;;;;;;;;;4766401;30;20047;-67
2022/11/22 05:45:07;;;;;;;8.02;7.32;;;;;;;;;;4765105;30;20047;-69
2022/11/22 05:47:35;;;;;;;9.85;8.85;;;;;;;;;;4762242;30;20089;-71
2022/11/22 05:50:02;;;;;;;8.23;6.85;;;;;;;;;;4763872;30;20058;-70
2022/11/22 05:52:30;;;;;;;7.75;7.05;;;;;;;;;;4768197;30;20086;-70
2022/11/22 05:54:57;;;;;;;8.40;7.60;;;;;;;;;;4776446;30;20060;-70
2022/11/22 05:57:24;;;;;;;7.47;6.78;;;;;;;;;;4762378;30;20052;-70
2022/11/22 05:59:52;;;;;;;10.80;7.10;;;;;;;;;;4765709;30;20059;-70
2022/11/22 06:02:19;;;;;;;8.57;7.78;;;;;;;;;;4764514;30;20496;-71
2022/11/22 06:04:47;;;;;;;7.10;6.40;;;;;;;;;;4770782;30;20515;-70
2022/11/22 06:07:14;;;;;;;8.65;7.75;;;;;;;;;;4766509;30;20044;-70
2022/11/22 06:09:42;;;;;;;7.05;6.35;;;;;;;;;;4760627;30;20047;-70
2022/11/22 06:12:09;;;;;;;8.18;7.45;;;;;;;;;;4770204;30;20056;-70
2022/11/22 06:14:37;;;;;;;8.50;7.70;;;;;;;;;;4766098;30;20054;-70
2022/11/22 06:17:09;;;;;;;8.30;7.60;;;;;;;;;;4781659;30;20054;-70
2022/11/22 06:19:37;;;;;;;10.48;7.25;;;;;;;;;;4758310;30;20533;-71
2022/11/22 06:22:05;;;;;;;8.55;7.57;;;;;;;;;;4758959;30;20512;-71
2022/11/22 06:24:32;;;;;;;8.73;7.82;;;;;;;;;;4770738;30;20051;-70
2022/11/22 06:26:59;;;;;;;9.52;8.23;;;;;;;;;;4768857;30;20083;-70
2022/11/22 06:29:27;;;;;;;6.95;6.35;;;;;;;;;;4757700;30;20047;-70
2022/11/22 06:31:55;;;;;;;8.38;7.57;;;;;;;;;;4760282;30;20488;-70
2022/11/22 06:34:30;;;;;;;9.70;8.77;;;;;;;;;;4756018;30;20125;-70
2022/11/22 06:36:57;;;;;;;11.52;9.68;;;;;;;;;;4762084;30;20055;-70
2022/11/22 06:39:25;;;;;;;12.40;10.10;;;;;;;;;;4753518;30;20051;-71
2022/11/22 06:41:53;;;;;;;9.32;8.23;;;;;;;;;;4751414;30;20536;-70
2022/11/22 06:44:20;;;;;;;16.15;14.82;;;;;;;;;;4778791;30;20062;-70
2022/11/22 06:46:48;;;;;;;11.02;9.93;;;;;;;;;;4753497;30;20682;-71
2022/11/22 06:49:15;;;;;;;12.00;10.18;;;;;;;;;;4748387;30;20048;-70
2022/11/22 06:51:42;;;;;;;15.10;10.38;;;;;;;;;;4770258;30;20292;-70
2022/11/22 06:54:10;;;;;;;10.52;9.50;;;;;;;;;;4773645;30;20150;-70
2022/11/22 06:56:39;;;;;;;10.55;9.45;;;;;;;;;;4761378;30;20880;-70
2022/11/22 06:59:07;;;;;;;12.15;10.15;;;;;;;;;;4751654;30;20059;-69
2022/11/22 07:01:34;;;;;;;13.23;11.57;;;;;;;;;;4754115;30;20060;-71
2022/11/22 07:04:06;;;;;;;11.68;10.35;;;;;;;;;;4769876;30;20065;-77
2022/11/22 07:06:37;;;;;;;10.30;9.30;;;;;;;;;;4763865;30;20052;-70
2022/11/22 07:09:06;;;;;;;9.00;8.15;;;;;;;;;;4768303;30;20047;-70
2022/11/22 07:11:33;;;;;;;10.98;9.88;;;;;;;;;;4749000;30;20039;-70
2022/11/22 07:14:02;;;;;;;11.15;10.07;;;;;;;;;;4775364;30;20043;-70
2022/11/22 07:16:35;;;;;;;10.48;8.70;;;;;;;;;;4758921;30;20078;-70
2022/11/22 07:19:02;;;;;;;10.32;9.32;;;;;;;;;;4758914;30;20059;-71
2022/11/22 07:21:29;;;;;;;9.13;8.30;;;;;;;;;;4752967;30;20958;-71
2022/11/22 07:23:56;;;;;;;9.40;8.48;;;;;;;;;;4749291;30;20110;-71
2022/11/22 07:26:25;;;;;;;8.50;7.70;;;;;;;;;;4746450;30;20135;-71
2022/11/22 07:28:52;;;;;;;9.32;8.43;;;;;;;;;;4755765;30;20040;-71
2022/11/22 07:31:20;;;;;;;8.15;7.35;;;;;;;;;;4757348;30;20063;-71
2022/11/22 07:33:47;;;;;;;9.93;9.00;;;;;;;;;;4756610;30;20040;-71
2022/11/22 07:36:21;;;;;;;9.10;8.20;;;;;;;;;;4751658;30;20044;-71
2022/11/22 07:38:49;;;;;;;8.98;8.18;;;;;;;;;;4758858;30;20044;-72
2022/11/22 07:41:17;;;;;;;11.00;9.90;;;;;;;;;;4740568;30;20052;-70
2022/11/22 07:43:45;;;;;;;10.73;8.45;;;;;;;;;;4758618;30;20058;-71
2022/11/22 07:46:30;;;;;;;10.13;9.13;;;;;;;;;;4735094;30;20414;-71
2022/11/22 07:48:59;;;;;;;10.52;8.40;;;;;;;;;;4746772;30;20044;-71
2022/11/22 07:51:27;;;;;;;9.05;8.25;;;;;;;;;;4723495;30;20044;-69
2022/11/22 07:53:55;;;;;;;9.38;7.90;;;;;;;;;;4756018;30;20408;-71
2022/11/22 07:56:23;;;;;;;9.73;8.77;;;;;;;;;;4757781;30;20093;-71
2022/11/22 07:58:50;;;;;;;9.50;8.70;;;;;;;;;;4733598;30;20052;-71
2022/11/22 08:01:18;;;;;;;10.27;9.18;;;;;;;;;;4753428;30;20120;-70
2022/11/22 08:03:45;;;;;;;9.68;8.55;;;;;;;;;;4762965;30;20479;-71
2022/11/22 08:06:13;;;;;;;8.57;7.68;;;;;;;;;;4746866;30;20062;-70
2022/11/22 08:08:41;;;;;;;9.80;8.80;;;;;;;;;;4745123;30;20149;-70
2022/11/22 08:11:09;;;;;;;10.07;9.07;;;;;;;;;;4748775;30;21158;-71
2022/11/22 08:13:36;;;;;;;10.35;8.75;;;;;;;;;;4762703;30;20071;-71
2022/11/22 08:16:05;;;;;;;8.38;7.57;;;;;;;;;;4759497;30;20054;-70
2022/11/22 08:18:33;;;;;;;11.55;10.45;;;;;;;;;;4784017;24;20135;-74
2022/11/22 08:21:04;;;;;;;9.50;8.02;;;;;;;;;;4816242;29;20065;-73
2022/11/22 08:23:31;;;;;;;9.52;8.50;;;;;;;;;;4801833;29;20054;-73
2022/11/22 08:26:02;;;;;;;9.50;8.52;;;;;;;;;;4769091;29;20059;-74
2022/11/22 08:28:29;;;;;;;9.63;8.55;;;;;;;;;;4787113;29;20283;-73
2022/11/22 08:31:04;;;;;;;9.27;8.40;;;;;;;;;;4786177;29;20099;-73
2022/11/22 08:33:31;;;;;;;11.90;10.68;;;;;;;;;;4784331;29;20047;-74
2022/11/22 08:35:58;;;;;;;12.18;10.98;;;;;;;;;;4769290;29;20043;-76
2022/11/22 08:38:26;;;;;;;14.35;12.95;;;;;;;;;;4791191;29;20051;-74
2022/11/22 08:40:54;;;;;;;11.57;10.48;;;;;;;;;;4765039;29;20063;-74
2022/11/22 08:43:21;;;;;;;12.48;11.18;;;;;;;;;;4766120;30;20443;-74
2022/11/22 08:45:52;;;;;;;15.95;11.73;;;;;;;;;;4766213;30;20048;-74
2022/11/22 08:48:20;;;;;;;12.40;11.10;;;;;;;;;;4781129;29;20488;-73
2022/11/22 08:50:50;;;;;;;13.05;10.18;;;;;;;;;;4799335;29;20066;-74
2022/11/22 08:53:17;;;;;;;10.52;8.82;;;;;;;;;;4792414;29;20054;-74
2022/11/22 08:55:45;;;;;;;8.32;7.53;;;;;;;;;;4786649;29;20132;-74
2022/11/22 08:58:12;;;;;;;10.15;8.48;;;;;;;;;;4785175;29;20071;-74
2022/11/22 09:00:39;;;;;;;9.77;8.60;;;;;;;;;;4796199;29;20382;-76
2022/11/22 09:03:07;;;;;;;10.57;9.50;;;;;;;;;;4799464;29;20541;-73
2022/11/22 09:05:35;;;;;;;9.90;8.90;;;;;;;;;;4794001;29;20096;-75
2022/11/22 09:08:03;;;;;;;13.63;8.70;;;;;;;;;;4784645;30;20139;-73
2022/11/22 09:10:45;;;;;;;10.18;9.07;;;;;;;;;;4770781;30;20119;-76
2022/11/22 09:13:13;;;;;;;11.95;10.55;;;;;;;;;;4782913;30;20043;-73
2022/11/22 09:15:40;;;;;;;10.68;9.57;;;;;;;;;;4786948;29;20071;-74
2022/11/22 09:18:07;;;;;;;9.77;8.88;;;;;;;;;;4781254;30;20132;-74
2022/11/22 09:20:35;;;;;;;12.20;10.82;;;;;;;;;;4787747;29;20047;-74
2022/11/22 09:23:03;;;;;;;11.30;10.25;;;;;;;;;;4784062;29;20106;-74
2022/11/22 09:25:30;;;;;;;10.18;9.25;;;;;;;;;;4785224;30;20055;-74
2022/11/22 09:28:03;;;;;;;12.02;10.18;;;;;;;;;;4779514;29;20476;-74
2022/11/22 09:30:31;;;;;;;9.70;8.75;;;;;;;;;;4786073;29;20074;-74
2022/11/22 09:32:58;;;;;;;11.52;10.43;;;;;;;;;;4798510;29;20449;-74
2022/11/22 09:35:25;;;;;;;9.60;8.00;;;;;;;;;;4801279;29;20047;-74
2022/11/22 09:37:52;;;;;;;10.25;9.35;;;;;;;;;;4801030;29;20428;-74
2022/11/22 09:40:20;;;;;;;10.43;9.20;;;;;;;;;;4785234;29;20413;-74
2022/11/22 09:43:06;;;;;;;11.57;10.38;;;;;;;;;;4802415;29;20050;-73
2022/11/22 09:45:52;;;;;;;11.50;10.38;;;;;;;;;;4784613;29;20047;-74
2022/11/22 09:48:19;;;;;;;11.32;10.27;;;;;;;;;;4784769;30;20062;-74
2022/11/22 09:50:49;;;;;;;10.68;9.68;;;;;;;;;;4767738;30;20063;-74
2022/11/22 09:53:22;;;;;;;11.40;10.32;;;;;;;;;;4783552;30;20409;-74
2022/11/22 09:55:56;;;;;;;10.30;8.35;;;;;;;;;;4789636;29;20035;-74
2022/11/22 09:58:32;;;;;;;10.52;9.35;;;;;;;;;;4778571;29;20053;-74
2022/11/22 10:01:12;;;;;;;14.00;10.73;;;;;;;;;;4785300;29;20051;-74
2022/11/22 10:03:58;;;;;;;11.25;9.88;;;;;;;;;;4801146;29;20047;-74
2022/11/22 10:06:32;;;;;;;10.13;9.07;;;;;;;;;;4802418;29;20520;-74
2022/11/22 10:09:18;;;;;;;11.50;10.15;;;;;;;;;;4791876;29;20477;-75
2022/11/22 10:11:51;;;;;;;11.27;10.20;;;;;;;;;;4776612;29;20137;-74
2022/11/22 10:14:26;;;;;;;11.77;10.57;;;;;;;;;;4803979;29;20074;-75
2022/11/22 10:17:00;;;;;;;12.60;11.30;;;;;;;;;;4802307;29;20112;-75
2022/11/22 10:19:48;;;;;;;12.88;10.65;;;;;;;;;;4802426;29;20681;-75
2022/11/22 10:22:15;;;;;;;9.60;8.80;;;;;;;;;;4793401;29;20568;-75
2022/11/22 10:24:45;;;;;;;13.82;10.63;;;;;;;;;;4792430;29;20214;-75
2022/11/22 10:27:15;;;;;;;12.88;10.30;;;;;;;;;;4783976;29;20047;-75
2022/11/22 10:29:43;;;;;;;14.40;10.95;;;;;;;;;;4787650;29;20458;-75
2022/11/22 10:32:18;;;;;;;11.27;10.15;;;;;;;;;;4786392;29;20047;-76
2022/11/22 10:35:00;;;;;;;11.18;10.02;;;;;;;;;;4784373;30;20509;-75
2022/11/22 10:38:05;;;;;;;12.15;10.98;;;;;;;;;;4768932;30;20043;-75
2022/11/22 10:40:37;;;;;;;10.48;9.48;;;;;;;;;;4741051;30;20055;-75
2022/11/22 10:43:14;;;;;;;10.93;9.75;;;;;;;;;;4783979;30;20047;-76
2022/11/22 10:45:41;;;;;;;10.73;9.60;;;;;;;;;;4783999;29;20501;-75
2022/11/22 10:48:08;;;;;;;11.40;10.27;;;;;;;;;;4784570;30;20074;-76
2022/11/22 10:50:54;;;;;;;13.07;11.80;;;;;;;;;;4783917;29;20049;-76
2022/11/22 10:53:27;;;;;;;13.25;11.63;;;;;;;;;;4797309;29;20176;-77
2022/11/22 10:56:02;;;;;;;14.13;11.90;;;;;;;;;;4784904;29;20209;-75
2022/11/22 10:58:52;;;;;;;12.63;11.35;;;;;;;;;;4802214;29;20047;-77
2022/11/22 11:01:20;;;;;;;11.95;10.35;;;;;;;;;;4752292;29;20523;-74
2022/11/22 11:03:48;;;;;;;14.45;11.32;;;;;;;;;;4783697;30;20098;-75
2022/11/22 11:06:33;;;;;;;11.90;10.05;;;;;;;;;;4794879;29;20054;-76
2022/11/22 11:09:22;;;;;;;12.20;10.05;;;;;;;;;;4784090;30;20126;-76
2022/11/22 11:12:13;;;;;;;11.40;10.30;;;;;;;;;;4782755;29;20050;-76
2022/11/22 11:14:43;;;;;;;13.45;10.05;;;;;;;;;;4781458;29;20047;-76
2022/11/22 11:17:17;;;;;;;15.30;10.48;;;;;;;;;;4801817;29;20058;-75
2022/11/22 11:19:46;;;;;;;10.27;9.25;;;;;;;;;;4801419;29;20047;-76
2022/11/22 11:22:24;;;;;;;12.80;10.27;;;;;;;;;;4800908;29;20055;-75
2022/11/22 11:25:32;;;;;;;11.38;10.38;;;;;;;;;;4795177;29;20062;-75
2022/11/22 11:28:05;;;;;;;11.18;10.05;;;;;;;;;;4783602;30;20063;-75
2022/11/22 11:30:40;;;;;;;12.05;10.95;;;;;;;;;;4782802;30;20466;-75
2022/11/22 11:33:21;;;;;;;11.98;10.77;;;;;;;;;;4782744;30;20381;-75
2022/11/22 11:35:50;;;;;;;10.70;9.57;;;;;;;;;;4767341;30;20450;-76
2022/11/22 11:38:33;;;;;;;11.80;10.02;;;;;;;;;;4783128;29;20055;-76
2022/11/22 11:41:19;;;;;;;13.65;10.50;;;;;;;;;;4783116;30;20055;-75
2022/11/22 11:43:47;;;;;;;13.30;10.80;;;;;;;;;;4768713;29;20066;-76
2022/11/22 11:46:19;;;;;;;13.85;12.45;;;;;;;;;;4792029;29;20107;-75
2022/11/22 11:48:47;;;;;;;12.30;10.98;;;;;;;;;;4790966;29;20549;-75
2022/11/22 11:51:20;;;;;;;12.80;11.60;;;;;;;;;;4793384;29;20042;-76
2022/11/22 11:53:52;;;;;;;14.00;12.13;;;;;;;;;;4800376;29;20157;-76
2022/11/22 11:56:21;;;;;;;13.13;11.82;;;;;;;;;;4782700;29;20104;-75
2022/11/22 11:58:56;;;;;;;13.82;12.63;;;;;;;;;;4781279;30;20044;-77
2022/11/22 12:01:23;;;;;;;13.85;12.40;;;;;;;;;;4782218;30;20057;-74
2022/11/22 12:03:58;;;;;;;14.73;12.90;;;;;;;;;;4782801;30;20055;-75
2022/11/22 12:06:29;;;;;;;12.48;11.32;;;;;;;;;;4751856;30;20051;-76
2022/11/22 12:09:00;;;;;;;13.27;12.07;;;;;;;;;;4782519;30;20520;-75
2022/11/22 12:11:33;;;;;;;14.30;12.52;;;;;;;;;;4781991;30;20505;-75
2022/11/22 12:14:02;;;;;;;14.15;12.20;;;;;;;;;;4782715;30;20420;-75
2022/11/22 12:16:47;;;;;;;11.70;10.57;;;;;;;;;;4782872;30;20050;-75
2022/11/22 12:19:24;;;;;;;11.80;10.73;;;;;;;;;;4781954;29;20182;-75
2022/11/22 12:22:03;;;;;;;14.60;12.35;;;;;;;;;;4782090;30;20489;-75
2022/11/22 12:24:42;;;;;;;13.60;12.00;;;;;;;;;;4782142;30;20071;-77
2022/11/22 12:27:30;;;;;;;14.10;12.32;;;;;;;;;;4782117;30;20051;-76
2022/11/22 12:29:57;;;;;;;14.35;12.57;;;;;;;;;;4781500;30;20051;-76
2022/11/22 12:32:28;;;;;;;13.27;11.93;;;;;;;;;;4765746;30;20058;-77
2022/11/22 12:35:12;;;;;;;13.80;12.38;;;;;;;;;;4782260;30;20058;-76
2022/11/22 12:37:43;;;;;;;18.70;16.80;;;;;;;;;;4781968;30;20082;-74
2022/11/22 12:40:18;;;;;;;15.38;13.27;;;;;;;;;;4781597;30;20059;-76
2022/11/22 12:42:45;;;;;;;19.05;16.25;;;;;;;;;;4765668;30;20071;-76
2022/11/22 12:45:16;;;;;;;16.50;14.90;;;;;;;;;;4782552;30;20047;-76
2022/11/22 12:47:45;;;;;;;18.13;14.30;;;;;;;;;;4782275;30;20051;-75
2022/11/22 12:50:36;;;;;;;15.52;14.00;;;;;;;;;;4765955;30;20055;-75
2022/11/22 12:53:13;;;;;;;15.52;14.02;;;;;;;;;;4778822;30;20532;-75
2022/11/22 12:55:46;;;;;;;15.38;12.75;;;;;;;;;;4781706;30;20065;-75
2022/11/22 12:58:14;;;;;;;15.18;12.95;;;;;;;;;;4782187;30;20062;-77
2022/11/22 13:00:47;;;;;;;15.25;13.65;;;;;;;;;;4781759;30;20052;-76
2022/11/22 13:03:17;;;;;;;15.93;14.05;;;;;;;;;;4782203;30;20058;-76
2022/11/22 13:05:51;;;;;;;19.05;14.85;;;;;;;;;;4767092;30;20095;-76
2022/11/22 13:08:39;;;;;;;14.82;12.40;;;;;;;;;;4781919;30;20116;-76
2022/11/22 13:11:12;;;;;;;15.38;13.75;;;;;;;;;;4780872;30;20055;-75
2022/11/22 13:13:41;;;;;;;20.50;14.27;;;;;;;;;;4767650;30;20473;-75
2022/11/22 13:16:10;;;;;;;16.00;14.32;;;;;;;;;;4766483;30;20198;-76
2022/11/22 13:19:00;;;;;;;15.25;13.73;;;;;;;;;;4781572;29;20100;-76
2022/11/22 13:21:51;;;;;;;13.02;11.60;;;;;;;;;;4776251;30;20126;-76
2022/11/22 13:24:27;;;;;;;14.23;12.77;;;;;;;;;;4781718;30;20539;-76
2022/11/22 13:26:58;;;;;;;20.33;15.10;;;;;;;;;;4765451;30;20047;-76
2022/11/22 13:29:27;;;;;;;18.02;16.10;;;;;;;;;;4781404;30;20047;-75
2022/11/22 13:32:06;;;;;;;19.23;17.27;;;;;;;;;;4764795;30;20047;-76
2022/11/22 13:34:35;;;;;;;18.77;16.85;;;;;;;;;;4781935;29;20085;-76
2022/11/22 13:37:04;;;;;;;19.98;16.52;;;;;;;;;;4784719;30;20462;-74
2022/11/22 13:39:31;;;;;;;20.65;18.27;;;;;;;;;;4784551;30;20051;-78
2022/11/22 13:41:59;;;;;;;18.15;15.98;;;;;;;;;;4784653;30;20048;-76
2022/11/22 13:44:32;;;;;;;18.33;15.32;;;;;;;;;;4784936;30;20113;-76
2022/11/22 13:47:03;;;;;;;18.80;16.23;;;;;;;;;;4784782;30;20047;-77
2022/11/22 13:49:31;;;;;;;18.27;15.73;;;;;;;;;;4784292;30;20055;-76
2022/11/22 13:52:05;;;;;;;16.85;15.05;;;;;;;;;;4783878;30;20043;-76
2022/11/22 13:54:35;;;;;;;17.67;15.02;;;;;;;;;;4784327;30;20055;-76
2022/11/22 13:57:03;;;;;;;17.02;15.50;;;;;;;;;;4784063;30;20158;-76
2022/11/22 13:59:31;;;;;;;15.82;14.25;;;;;;;;;;4767839;30;20438;-76
2022/11/22 14:02:00;;;;;;;22.27;20.20;;;;;;;;;;4783977;30;20055;-76
2022/11/22 14:04:34;;;;;;;15.23;13.70;;;;;;;;;;4768529;30;20058;-76
2022/11/22 14:07:10;;;;;;;17.33;15.70;;;;;;;;;;4784444;30;20055;-76
2022/11/22 14:09:53;;;;;;;13.98;12.63;;;;;;;;;;4784103;30;20047;-75
2022/11/22 14:12:39;;;;;;;14.52;13.13;;;;;;;;;;4783620;30;20051;-76
2022/11/22 14:15:18;;;;;;;15.25;13.32;;;;;;;;;;4767985;30;20059;-77
2022/11/22 14:17:50;;;;;;;35.67;32.78;;;;;;;;;;4783946;30;20051;-75
2022/11/22 14:20:36;;;;;;;16.48;14.85;;;;;;;;;;4828303;24;20045;-81
2022/11/22 14:23:16;;;;;;;14.23;12.73;;;;;;;;;;4827396;29;20051;-82
2022/11/22 14:25:56;;;;;;;15.27;13.77;;;;;;;;;;4827571;29;20204;-83
2022/11/22 14:28:27;;;;;;;17.27;14.77;;;;;;;;;;4827711;29;20084;-83
2022/11/22 14:30:54;;;;;;;17.90;15.75;;;;;;;;;;4828319;29;20106;-82
2022/11/22 14:33:23;;;;;;;17.58;16.00;;;;;;;;;;4811332;29;20050;-76
2022/11/22 14:36:05;;;;;;;19.58;14.77;;;;;;;;;;4811826;29;20048;-83
2022/11/22 14:38:37;;;;;;;16.67;15.07;;;;;;;;;;4827416;29;20112;-80
2022/11/22 14:41:04;;;;;;;;;;;;;;;;;;4826911;29;20039;-81
2022/11/22 14:43:33;;;;;;;26.80;24.08;;;;;;;;;;4828010;29;19913;-80
2022/11/22 14:46:11;;;;;;;16.95;15.05;;;;;;;;;;4827267;29;20122;-80
2022/11/22 14:49:01;;;;;;;16.10;13.82;;;;;;;;;;4812430;29;20054;-83
2022/11/22 14:51:30;;;;;;;18.38;15.82;;;;;;;;;;4845216;29;20335;-83
2022/11/22 14:54:17;;;;;;;21.23;16.80;;;;;;;;;;4829477;29;20094;-81
2022/11/22 14:56:45;;;;;;;18.83;14.50;;;;;;;;;;4829920;29;20050;-81
2022/11/22 14:59:30;;;;;;;18.83;15.27;;;;;;;;;;4845385;29;20034;-84
2022/11/22 15:02:07;;;;;;;19.92;16.55;;;;;;;;;;4845184;29;20034;-83
2022/11/22 15:04:53;;;;;;;19.20;14.73;;;;;;;;;;4845585;29;20106;-82
2022/11/22 15:07:43;;;;;;;19.75;14.32;;;;;;;;;;4845692;29;20054;-83
2022/11/22 15:10:31;;;;;;;21.10;15.77;;;;;;;;;;4845145;29;20050;-80
2022/11/22 15:13:06;;;;;;;23.35;20.42;;;;;;;;;;4844915;29;20057;-84
2022/11/22 15:15:35;;;;;;;19.75;17.67;;;;;;;;;;4845649;29;20087;-83